Time;durP1;ratioP1;P1;durP2;ratioP2;P2;SDS_P1;SDS_P2;PMS_P1;PMS_P2;Temp;Humidity;BMP_temperature;BMP_pressure;BME280_temperature;BME280_humidity;BME280_pressure;Samples;Min_cycle;Max_cycle;Signal;HPM_P1;HPM_P2
2021/04/20 00:00:43;;;;;;;17.47;9.60;;;3.90;99.90;;;;;;5028659;28;20519;-68
2021/04/20 00:03:10;;;;;;;14.07;10.40;;;3.90;99.90;;;;;;5028999;28;20625;-68
2021/04/20 00:05:37;;;;;;;15.63;9.30;;;3.90;99.90;;;;;;5028933;28;20424;-68
2021/04/20 00:08:04;;;;;;;13.40;9.60;;;3.80;99.90;;;;;;5028484;28;20525;-68
2021/04/20 00:10:30;;;;;;;15.30;10.47;;;3.80;99.90;;;;;;5028942;28;20922;-69
2021/04/20 00:12:58;;;;;;;16.83;10.23;;;3.80;99.90;;;;;;5047769;28;20467;-69
2021/04/20 00:15:27;;;;;;;12.63;9.73;;;3.80;99.90;;;;;;5048412;28;20832;-69
2021/04/20 00:17:57;;;;;;;15.80;9.83;;;3.70;99.90;;;;;;5048732;28;20466;-68
2021/04/20 00:20:24;;;;;;;11.93;8.53;;;3.70;99.90;;;;;;5048349;28;20928;-68
2021/04/20 00:36:20;;;;;;;12.80;9.53;;;3.60;99.90;;;;;;5048000;28;20382;-69
2021/04/20 00:38:47;;;;;;;14.53;9.27;;;3.60;99.90;;;;;;5048071;27;20887;-69
2021/04/20 00:41:15;;;;;;;12.60;9.20;;;3.50;99.90;;;;;;5048213;28;20431;-68
2021/04/20 00:43:43;;;;;;;14.33;9.83;;;3.50;99.90;;;;;;5048028;27;20452;-68
2021/04/20 00:46:11;;;;;;;16.50;10.43;;;3.50;99.90;;;;;;5048194;28;20453;-68
2021/04/20 00:48:38;;;;;;;11.37;8.97;;;3.50;99.90;;;;;;5048263;28;20423;-68
2021/04/20 00:51:06;;;;;;;14.40;10.63;;;3.50;99.90;;;;;;5047973;28;20450;-68
2021/04/20 00:53:34;;;;;;;17.37;10.03;;;3.50;99.90;;;;;;5048095;28;20468;-68
2021/04/20 00:56:01;;;;;;;17.77;10.97;;;3.50;99.90;;;;;;5048001;28;20527;-68
2021/04/20 00:58:27;;;;;;;16.07;11.30;;;3.50;99.90;;;;;;5048121;28;20524;-68
2021/04/20 01:00:56;;;;;;;20.03;11.63;;;3.50;99.90;;;;;;5047572;28;20430;-68
2021/04/20 01:03:22;;;;;;;17.93;11.63;;;3.50;99.90;;;;;;5047946;28;20459;-68
2021/04/20 01:05:50;;;;;;;16.87;10.80;;;3.50;99.90;;;;;;5047909;28;20428;-68
2021/04/20 01:08:19;;;;;;;16.50;11.37;;;3.60;99.90;;;;;;5048175;28;20943;-69
2021/04/20 01:10:49;;;;;;;17.27;11.13;;;3.60;99.90;;;;;;5047187;27;20523;-69
2021/04/20 01:13:16;;;;;;;23.00;12.03;;;3.60;99.90;;;;;;5028038;28;20475;-68
2021/04/20 01:15:44;;;;;;;16.27;11.17;;;3.70;99.90;;;;;;5028145;28;20443;-68
2021/04/20 01:18:12;;;;;;;17.97;11.37;;;3.70;99.90;;;;;;5027546;28;20531;-68
2021/04/20 01:20:42;;;;;;;19.20;12.30;;;3.70;99.90;;;;;;5026872;28;20436;-68
2021/04/20 01:23:11;;;;;;;25.20;13.10;;;3.70;99.90;;;;;;5027836;28;20531;-68
2021/04/20 01:25:39;;;;;;;17.53;12.60;;;3.80;99.90;;;;;;5027943;28;20428;-68
2021/04/20 01:28:06;;;;;;;16.43;13.00;;;3.70;99.90;;;;;;5027877;28;20440;-68
2021/04/20 01:30:34;;;;;;;19.13;12.37;;;3.70;99.90;;;;;;5027458;28;20429;-68
2021/04/20 01:33:04;;;;;;;19.67;13.33;;;3.70;99.90;;;;;;5027632;28;20533;-69
2021/04/20 01:35:33;;;;;;;21.87;13.43;;;3.70;99.90;;;;;;5027918;28;20424;-69
2021/04/20 01:38:02;;;;;;;21.87;13.43;;;3.70;99.90;;;;;;5027801;28;20479;-68
2021/04/20 01:40:30;;;;;;;19.53;13.20;;;3.70;99.90;;;;;;5027686;28;20428;-69
2021/04/20 01:42:58;;;;;;;19.57;14.53;;;3.60;99.90;;;;;;5027392;28;20448;-69
2021/04/20 01:45:26;;;;;;;21.30;13.60;;;3.60;99.90;;;;;;5027492;28;20431;-69
2021/04/20 01:47:54;;;;;;;23.93;12.70;;;3.50;99.90;;;;;;5027613;28;20966;-69
2021/04/20 01:50:21;;;;;;;20.73;13.50;;;3.50;99.90;;;;;;5027715;28;20822;-69
2021/04/20 01:52:48;;;;;;;18.10;12.30;;;3.40;99.90;;;;;;5034501;28;20467;-69
2021/04/20 01:55:15;;;;;;;17.67;11.33;;;3.30;99.90;;;;;;5047465;28;20433;-69
2021/04/20 01:57:45;;;;;;;14.80;11.33;;;3.30;99.90;;;;;;5047332;28;20467;-69
2021/04/20 02:00:16;;;;;;;19.40;12.67;;;3.20;99.90;;;;;;5047331;27;20483;-68
2021/04/20 02:02:43;;;;;;;17.47;12.23;;;3.10;99.90;;;;;;5046995;28;20496;-69
2021/04/20 02:05:12;;;;;;;16.90;10.60;;;3.20;99.90;;;;;;5047309;28;20438;-69
2021/04/20 02:07:39;;;;;;;17.63;12.40;;;3.10;99.90;;;;;;5047285;27;20426;-68
2021/04/20 02:10:09;;;;;;;16.00;11.03;;;3.00;99.90;;;;;;5047151;28;20449;-69
2021/04/20 02:12:37;;;;;;;16.03;10.60;;;3.00;99.90;;;;;;5046990;28;20459;-69
2021/04/20 02:15:05;;;;;;;15.13;11.17;;;3.00;99.90;;;;;;5047529;28;20760;-68
2021/04/20 02:17:33;;;;;;;16.13;10.63;;;2.90;99.90;;;;;;5046825;27;20865;-69
2021/04/20 02:20:00;;;;;;;16.47;11.27;;;3.00;99.90;;;;;;5047059;27;20434;-69
2021/04/20 02:22:27;;;;;;;15.70;11.03;;;2.90;99.90;;;;;;5047008;28;20472;-69
2021/04/20 02:24:54;;;;;;;17.03;10.87;;;2.90;99.90;;;;;;5047149;28;20423;-69
2021/04/20 02:27:21;;;;;;;16.53;10.47;;;2.80;99.90;;;;;;5046976;28;20525;-68
2021/04/20 02:29:48;;;;;;;22.00;12.80;;;2.70;99.90;;;;;;5046832;28;20821;-69
2021/04/20 02:32:15;;;;;;;18.90;11.30;;;2.70;99.90;;;;;;5049978;28;20422;-69
2021/04/20 02:34:42;;;;;;;16.50;11.37;;;2.70;99.90;;;;;;5050405;28;20423;-69
2021/04/20 02:37:10;;;;;;;19.27;11.83;;;2.70;99.90;;;;;;5050323;28;20868;-69
2021/04/20 02:39:36;;;;;;;16.17;10.50;;;2.70;99.90;;;;;;5050031;28;20510;-68
2021/04/20 02:42:04;;;;;;;17.37;10.90;;;2.70;99.90;;;;;;5050262;28;20442;-69
2021/04/20 02:44:31;;;;;;;16.00;10.10;;;2.70;99.90;;;;;;5053103;28;20443;-71
2021/04/20 02:47:00;;;;;;;14.40;11.17;;;2.70;99.90;;;;;;5049953;27;20438;-70
2021/04/20 02:49:27;;;;;;;21.90;11.80;;;2.70;99.90;;;;;;5050105;28;20586;-71
2021/04/20 02:51:55;;;;;;;16.77;11.30;;;2.70;99.90;;;;;;5050152;28;20791;-70
2021/04/20 02:54:22;;;;;;;20.63;10.67;;;2.60;99.90;;;;;;5049680;28;20974;-70
2021/04/20 02:56:51;;;;;;;17.13;10.50;;;2.60;99.90;;;;;;5050038;27;20426;-71
2021/04/20 02:59:17;;;;;;;16.30;11.47;;;2.60;99.90;;;;;;5049889;28;20943;-71
2021/04/20 03:01:48;;;;;;;17.00;9.53;;;2.60;99.90;;;;;;5049745;28;20441;-71
2021/04/20 03:04:16;;;;;;;16.87;10.20;;;2.70;99.90;;;;;;5049894;28;21145;-70
2021/04/20 03:06:43;;;;;;;17.93;10.50;;;2.70;99.90;;;;;;5049905;28;20443;-70
2021/04/20 03:09:12;;;;;;;15.97;10.47;;;2.80;99.90;;;;;;5049539;28;20426;-71
2021/04/20 03:11:41;;;;;;;16.83;11.43;;;2.80;99.90;;;;;;5042122;27;20439;-70
2021/04/20 03:14:08;;;;;;;16.43;11.37;;;2.80;99.90;;;;;;5030049;28;20451;-70
2021/04/20 03:16:36;;;;;;;15.63;10.43;;;2.80;99.90;;;;;;5029660;28;20904;-70
2021/04/20 03:19:04;;;;;;;18.90;10.10;;;2.70;99.90;;;;;;5029556;28;20467;-70
2021/04/20 03:21:32;;;;;;;16.97;10.27;;;2.70;99.90;;;;;;5029783;28;20424;-70
2021/04/20 03:24:01;;;;;;;17.57;10.90;;;2.60;99.90;;;;;;5029606;28;20443;-70
2021/04/20 03:26:37;;;;;;;16.13;10.80;;;2.60;99.90;;;;;;5029716;28;20437;-70
2021/04/20 03:29:07;;;;;;;20.57;11.37;;;2.50;99.90;;;;;;5029633;28;20491;-70
2021/04/20 03:31:38;;;;;;;19.00;11.60;;;2.50;99.90;;;;;;5029712;28;20428;-70
2021/04/20 03:34:15;;;;;;;19.97;11.73;;;2.60;99.90;;;;;;5029286;28;20885;-71
2021/04/20 03:36:46;;;;;;;22.67;12.30;;;2.60;99.90;;;;;;5029829;28;20451;-70
2021/04/20 03:39:16;;;;;;;19.77;12.23;;;2.60;99.90;;;;;;5029315;28;20451;-71
2021/04/20 03:41:51;;;;;;;19.40;12.70;;;2.60;99.90;;;;;;5028577;28;20445;-71
2021/04/20 03:44:22;;;;;;;21.47;13.30;;;2.50;99.90;;;;;;5029477;28;20459;-70
2021/04/20 03:46:53;;;;;;;19.07;12.13;;;2.50;99.90;;;;;;5029183;28;20984;-70
2021/04/20 03:49:25;;;;;;;19.43;11.50;;;2.50;99.90;;;;;;5029084;28;20490;-70
2021/04/20 03:51:54;;;;;;;22.13;12.80;;;2.50;99.90;;;;;;5029373;28;21107;-70
2021/04/20 03:54:23;;;;;;;24.00;13.13;;;2.40;99.90;;;;;;5029370;28;20464;-70
2021/04/20 03:56:55;;;;;;;24.67;13.10;;;2.40;99.90;;;;;;5029184;28;20435;-70
2021/04/20 03:59:24;;;;;;;20.90;12.80;;;2.40;99.90;;;;;;5029093;28;20456;-70
2021/04/20 04:01:57;;;;;;;31.70;14.00;;;2.30;99.90;;;;;;5029000;28;20804;-70
2021/04/20 04:04:25;;;;;;;22.97;14.50;;;2.40;99.90;;;;;;5038527;28;20446;-70
2021/04/20 04:06:53;;;;;;;23.30;14.90;;;2.40;99.90;;;;;;5049060;27;20427;-70
2021/04/20 04:09:20;;;;;;;20.60;12.27;;;2.40;99.90;;;;;;5048989;28;20423;-69
2021/04/20 04:11:52;;;;;;;24.10;13.90;;;2.30;99.90;;;;;;5049233;28;20431;-70
2021/04/20 04:14:22;;;;;;;19.73;12.40;;;2.30;99.90;;;;;;5049272;28;20463;-70
2021/04/20 04:16:58;;;;;;;21.20;12.50;;;2.30;99.90;;;;;;5048782;28;20431;-70
2021/04/20 04:19:27;;;;;;;19.07;12.27;;;2.30;99.90;;;;;;5048828;28;20449;-70
2021/04/20 04:21:57;;;;;;;22.17;12.40;;;2.30;99.90;;;;;;5048743;28;20442;-70
2021/04/20 04:24:29;;;;;;;19.50;11.80;;;2.20;99.90;;;;;;5049064;28;20449;-70
2021/04/20 04:26:58;;;;;;;18.60;12.83;;;2.20;99.90;;;;;;5049131;28;20435;-69
2021/04/20 04:29:25;;;;;;;21.43;11.37;;;2.10;99.90;;;;;;5048872;28;20439;-70
2021/04/20 04:31:53;;;;;;;20.07;11.60;;;2.10;99.90;;;;;;5048571;28;20434;-69
2021/04/20 04:34:21;;;;;;;17.57;10.60;;;2.10;99.90;;;;;;5048734;28;20454;-70
2021/04/20 04:36:48;;;;;;;18.30;12.03;;;2.10;99.90;;;;;;5049051;28;20442;-70
2021/04/20 04:39:16;;;;;;;19.40;11.50;;;2.10;99.90;;;;;;5048261;28;20817;-70
2021/04/20 04:41:43;;;;;;;17.13;10.87;;;2.00;99.90;;;;;;5048489;28;20423;-70
2021/04/20 04:44:12;;;;;;;16.90;10.50;;;2.00;99.90;;;;;;5048570;28;20459;-70
2021/04/20 04:46:40;;;;;;;16.97;10.50;;;2.10;99.90;;;;;;5048381;28;20427;-70
2021/04/20 04:49:08;;;;;;;20.07;11.77;;;2.10;99.90;;;;;;5048012;28;20788;-70
2021/04/20 04:51:37;;;;;;;25.43;11.67;;;2.10;99.90;;;;;;5048439;28;20435;-70
2021/04/20 04:54:05;;;;;;;35.30;11.73;;;2.00;99.90;;;;;;5048028;28;20451;-69
2021/04/20 04:56:34;;;;;;;19.50;11.70;;;2.10;99.90;;;;;;5048778;28;20423;-69
2021/04/20 04:59:05;;;;;;;22.23;10.50;;;2.10;99.90;;;;;;5047764;28;20486;-71
2021/04/20 05:01:33;;;;;;;19.00;10.60;;;2.10;99.90;;;;;;5047958;28;20534;-70
2021/04/20 05:04:07;;;;;;;21.60;11.87;;;2.10;99.90;;;;;;5048695;28;20880;-69
2021/04/20 05:06:38;;;;;;;19.67;11.10;;;2.10;99.90;;;;;;5048591;28;20426;-69
2021/04/20 05:09:08;;;;;;;19.40;12.20;;;2.10;99.90;;;;;;5047773;28;20438;-70
2021/04/20 05:11:37;;;;;;;20.63;12.40;;;2.10;99.90;;;;;;5047618;28;20435;-71
2021/04/20 05:14:04;;;;;;;23.70;12.80;;;2.10;99.90;;;;;;5047373;28;20519;-70
2021/04/20 05:16:32;;;;;;;23.87;13.77;;;2.10;99.90;;;;;;5047910;27;20430;-69
2021/04/20 05:19:01;;;;;;;21.67;12.67;;;2.20;99.90;;;;;;5047714;28;20474;-69
2021/04/20 05:21:28;;;;;;;18.47;11.43;;;2.10;99.90;;;;;;5048339;27;20450;-69
2021/04/20 05:23:55;;;;;;;13.70;10.57;;;2.20;99.90;;;;;;5047666;28;20439;-70
2021/04/20 05:26:22;;;;;;;23.50;11.57;;;2.20;99.90;;;;;;5048244;28;20443;-69
2021/04/20 05:28:48;;;;;;;20.00;12.00;;;2.20;99.90;;;;;;5047449;28;20438;-70
2021/04/20 05:31:15;;;;;;;21.30;12.80;;;2.30;99.90;;;;;;5047635;28;20458;-70
2021/04/20 05:33:43;;;;;;;26.73;13.90;;;2.30;99.90;;;;;;5047492;27;20463;-70
2021/04/20 05:36:11;;;;;;;20.93;12.07;;;2.40;99.90;;;;;;5047698;28;20427;-70
2021/04/20 05:38:38;;;;;;;24.60;14.30;;;2.40;99.90;;;;;;5047443;28;20831;-71
2021/04/20 05:41:07;;;;;;;20.27;13.10;;;2.40;99.90;;;;;;5047539;28;20765;-70
2021/04/20 05:43:33;;;;;;;25.90;14.37;;;2.40;99.90;;;;;;5047399;28;20506;-68
2021/04/20 05:46:00;;;;;;;23.70;12.50;;;2.50;99.90;;;;;;5047581;28;20453;-68
2021/04/20 05:48:27;;;;;;;23.27;12.60;;;2.50;99.90;;;;;;5047531;28;20434;-68
2021/04/20 05:50:54;;;;;;;24.93;15.43;;;2.50;99.90;;;;;;5047319;28;20433;-68
2021/04/20 05:53:21;;;;;;;29.37;18.03;;;2.50;99.90;;;;;;5047270;28;20450;-68
2021/04/20 05:55:48;;;;;;;24.90;18.00;;;2.50;99.90;;;;;;5047405;28;20443;-68
2021/04/20 05:58:14;;;;;;;26.37;17.07;;;2.60;99.90;;;;;;5047430;28;20478;-68
2021/04/20 06:00:41;;;;;;;28.30;17.67;;;2.70;99.90;;;;;;5047276;28;20437;-68
2021/04/20 06:03:08;;;;;;;26.10;15.70;;;2.80;99.90;;;;;;5046881;28;20521;-69
2021/04/20 06:05:35;;;;;;;28.53;15.80;;;2.80;99.90;;;;;;5048382;28;20426;-70
2021/04/20 06:08:06;;;;;;;29.80;16.40;;;2.90;99.90;;;;;;5050978;28;20495;-69
2021/04/20 06:10:33;;;;;;;25.70;15.47;;;3.00;99.90;;;;;;5050709;28;20446;-70
2021/04/20 06:13:00;;;;;;;25.67;14.00;;;3.10;99.90;;;;;;5050700;28;20765;-70
2021/04/20 06:15:27;;;;;;;26.27;14.80;;;3.10;99.90;;;;;;5050587;28;20430;-70
2021/04/20 06:17:55;;;;;;;24.27;15.17;;;3.20;99.90;;;;;;5050463;27;20849;-70
2021/04/20 06:20:24;;;;;;;29.80;15.83;;;3.30;99.90;;;;;;5050366;28;20431;-71
2021/04/20 06:22:54;;;;;;;24.90;15.27;;;3.40;99.90;;;;;;5050362;28;20462;-70
2021/04/20 06:25:22;;;;;;;25.40;15.83;;;3.50;99.90;;;;;;5050934;28;20434;-69
2021/04/20 06:27:49;;;;;;;28.40;16.80;;;3.60;99.90;;;;;;5050446;28;20434;-70
2021/04/20 06:30:18;;;;;;;29.67;18.43;;;3.70;99.90;;;;;;5050239;28;20885;-70
2021/04/20 06:32:47;;;;;;;37.77;18.43;;;3.70;99.90;;;;;;5050045;28;20467;-70
2021/04/20 06:35:15;;;;;;;29.40;18.63;;;3.80;99.90;;;;;;5050289;28;20779;-66
2021/04/20 06:37:44;;;;;;;33.63;19.50;;;4.00;99.90;;;;;;5050105;27;20466;-69
2021/04/20 06:40:13;;;;;;;35.30;20.37;;;4.10;99.90;;;;;;5050171;27;20427;-67
2021/04/20 06:42:43;;;;;;;29.60;17.33;;;4.20;99.90;;;;;;5050123;28;20455;-67
2021/04/20 06:45:12;;;;;;;35.43;17.70;;;4.40;99.90;;;;;;5050665;28;20438;-67
2021/04/20 06:47:45;;;;;;;25.60;16.60;;;4.60;99.90;;;;;;5048769;28;20946;-66
2021/04/20 06:50:16;;;;;;;25.67;16.60;;;4.80;99.90;;;;;;5049322;28;20423;-67
2021/04/20 06:52:49;;;;;;;34.37;19.27;;;5.00;99.90;;;;;;5049973;28;20461;-67
2021/04/20 06:55:23;;;;;;;33.13;19.00;;;5.20;99.90;;;;;;5049941;28;20442;-67
2021/04/20 06:58:03;;;;;;;30.80;18.70;;;5.30;99.90;;;;;;5049584;27;20467;-67
2021/04/20 07:00:38;;;;;;;26.23;16.00;;;5.50;99.90;;;;;;5049172;28;20427;-67
2021/04/20 07:03:12;;;;;;;32.67;18.53;;;5.50;99.90;;;;;;5049699;28;20973;-67
2021/04/20 07:05:49;;;;;;;32.83;21.40;;;5.50;99.90;;;;;;5049668;28;20435;-67
2021/04/20 07:08:23;;;;;;;28.70;17.77;;;5.50;99.90;;;;;;5049537;28;20426;-67
2021/04/20 07:10:53;;;;;;;26.60;16.70;;;5.60;99.90;;;;;;5049123;28;20427;-68
2021/04/20 07:13:24;;;;;;;44.43;27.60;;;5.70;99.90;;;;;;5049631;28;20477;-68
2021/04/20 07:15:55;;;;;;;26.97;17.60;;;5.70;99.90;;;;;;5049887;28;20941;-68
2021/04/20 07:18:43;;;;;;;18.97;14.40;;;5.70;99.90;;;;;;5049527;28;20474;-67
2021/04/20 07:21:36;;;;;;;18.07;12.73;;;6.00;99.90;;;;;;5049763;28;20455;-68
2021/04/20 07:24:18;;;;;;;17.93;11.50;;;6.20;99.90;;;;;;5049477;27;20547;-67
2021/04/20 07:26:53;;;;;;;20.97;12.10;;;6.40;99.90;;;;;;5049561;28;20436;-66
2021/04/20 07:29:48;;;;;;;16.40;10.53;;;6.60;99.90;;;;;;5049283;28;20435;-66
2021/04/20 07:32:31;;;;;;;16.83;11.43;;;6.80;99.90;;;;;;5052080;27;20454;-65
2021/04/20 07:35:14;;;;;;;18.33;11.83;;;7.00;99.90;;;;;;5049322;28;20443;-66
2021/04/20 07:37:44;;;;;;;28.33;14.47;;;7.10;99.90;;;;;;5049168;28;21063;-66
2021/04/20 07:40:26;;;;;;;18.83;13.23;;;7.10;99.90;;;;;;5049675;28;20423;-66
2021/04/20 07:43:21;;;;;;;20.13;13.33;;;7.20;99.90;;;;;;5049508;28;20466;-66
2021/04/20 07:45:53;;;;;;;22.73;12.37;;;7.10;99.90;;;;;;5049314;28;20453;-67
2021/04/20 07:48:35;;;;;;;17.13;11.27;;;7.20;99.90;;;;;;5048856;28;20447;-66
2021/04/20 07:51:08;;;;;;;16.33;10.93;;;7.30;99.90;;;;;;5049044;28;20423;-66
2021/04/20 07:53:41;;;;;;;14.83;10.63;;;7.40;99.90;;;;;;5048900;28;20475;-66
2021/04/20 07:56:16;;;;;;;11.80;9.57;;;7.50;99.90;;;;;;5049568;28;20435;-67
2021/04/20 07:58:49;;;;;;;13.70;9.40;;;7.70;99.90;;;;;;5048670;28;20465;-64
2021/04/20 08:01:33;;;;;;;11.47;8.90;;;7.90;99.90;;;;;;5049044;28;20440;-67
2021/04/20 08:04:11;;;;;;;15.97;10.20;;;8.00;99.90;;;;;;5048742;28;20514;-67
2021/04/20 08:06:39;;;;;;;12.27;8.53;;;8.20;99.90;;;;;;5049061;28;20425;-68
2021/04/20 08:09:12;;;;;;;14.90;10.83;;;8.30;99.90;;;;;;5048782;28;20438;-64
2021/04/20 08:11:44;;;;;;;15.03;10.23;;;8.30;99.90;;;;;;5048910;28;20427;-64
2021/04/20 08:14:19;;;;;;;12.93;9.63;;;8.50;99.90;;;;;;5048602;28;20469;-65
2021/04/20 08:16:50;;;;;;;14.43;9.30;;;8.60;99.90;;;;;;5048315;28;20443;-65
2021/04/20 08:19:22;;;;;;;14.47;10.17;;;8.80;99.90;;;;;;5048268;28;20470;-65
2021/04/20 08:21:50;;;;;;;13.07;9.33;;;8.90;99.90;;;;;;5048108;27;20443;-64
2021/04/20 08:24:22;;;;;;;12.33;9.63;;;9.00;99.90;;;;;;5048547;28;20462;-64
2021/04/20 08:26:55;;;;;;;16.73;10.37;;;9.00;99.90;;;;;;5048787;28;20434;-65
2021/04/20 08:29:26;;;;;;;14.53;11.57;;;9.10;99.90;;;;;;5046616;27;20427;-66
2021/04/20 08:31:56;;;;;;;11.67;8.80;;;9.10;99.90;;;;;;5045308;28;20423;-67
2021/04/20 08:34:30;;;;;;;11.03;8.07;;;9.30;99.90;;;;;;5047719;28;20474;-66
2021/04/20 08:37:10;;;;;;;15.80;9.87;;;9.40;99.90;;;;;;5048553;28;20419;-66
2021/04/20 08:39:41;;;;;;;14.30;9.80;;;9.50;99.90;;;;;;5048098;28;20477;-65
2021/04/20 08:42:14;;;;;;;15.33;9.80;;;9.70;99.90;;;;;;5036503;28;20532;-66
2021/04/20 08:44:51;;;;;;;16.80;11.97;;;9.80;99.90;;;;;;5028488;28;20463;-66
2021/04/20 08:47:26;;;;;;;12.00;8.40;;;9.90;99.90;;;;;;5028307;28;20436;-64
2021/04/20 08:49:56;;;;;;;14.13;9.10;;;10.10;99.90;;;;;;5028192;28;20443;-65
2021/04/20 08:52:52;;;;;;;13.77;10.17;;;10.20;99.90;;;;;;5028305;28;20431;-65
2021/04/20 08:55:32;;;;;;;13.77;9.30;;;10.30;99.90;;;;;;5023387;27;20808;-65
2021/04/20 08:58:17;;;;;;;13.17;9.40;;;10.40;99.90;;;;;;5028194;28;20494;-64
2021/04/20 09:00:53;;;;;;;16.13;9.37;;;10.30;99.90;;;;;;5028188;28;20435;-65
2021/04/20 09:03:29;;;;;;;11.10;8.87;;;10.30;99.90;;;;;;5027669;28;21077;-65
2021/04/20 09:05:58;;;;;;;9.80;8.10;;;10.50;99.90;;;;;;5028254;28;20773;-64
2021/04/20 09:08:34;;;;;;;14.30;8.37;;;10.50;99.90;;;;;;5028202;28;20432;-65
2021/04/20 09:11:11;;;;;;;11.90;9.23;;;10.60;99.90;;;;;;5028076;28;21095;-64
2021/04/20 09:13:53;;;;;;;14.43;9.87;;;10.60;99.90;;;;;;5027763;28;20463;-68
2021/04/20 09:16:22;;;;;;;13.13;9.33;;;10.70;99.90;;;;;;5028040;28;20443;-67
2021/04/20 09:18:50;;;;;;;12.33;8.40;;;10.90;99.90;;;;;;5027678;28;20475;-67
2021/04/20 09:21:21;;;;;;;11.70;8.83;;;11.00;99.90;;;;;;5027910;28;20439;-68
2021/04/20 09:24:07;;;;;;;14.83;8.73;;;11.00;99.90;;;;;;5027802;28;20456;-67
2021/04/20 09:26:40;;;;;;;10.80;8.97;;;11.10;99.90;;;;;;5028204;28;20451;-67
2021/04/20 09:29:13;;;;;;;15.20;8.10;;;11.20;99.90;;;;;;5027841;28;20720;-67
2021/04/20 09:31:47;;;;;;;11.57;7.30;;;11.20;99.90;;;;;;5027909;28;20519;-68
2021/04/20 09:34:17;;;;;;;10.23;7.03;;;11.10;99.90;;;;;;5027683;28;20480;-66
2021/04/20 09:36:43;;;;;;;10.00;7.00;;;11.20;99.90;;;;;;5028042;28;20528;-65
2021/04/20 09:39:13;;;;;;;8.37;6.00;;;11.30;99.90;;;;;;5028823;28;20467;-66
2021/04/20 09:41:42;;;;;;;10.60;6.93;;;11.30;99.90;;;;;;5030403;28;20443;-66
2021/04/20 09:44:28;;;;;;;7.23;5.30;;;11.40;99.90;;;;;;5031145;28;20455;-68
2021/04/20 09:47:10;;;;;;;14.40;8.23;;;11.50;99.90;;;;;;5030989;28;20435;-65
2021/04/20 09:49:47;;;;;;;9.90;6.87;;;11.70;99.90;;;;;;5030930;28;20481;-69
2021/04/20 09:52:20;;;;;;;9.83;7.00;;;11.70;99.90;;;;;;5030963;28;20534;-68
2021/04/20 09:54:56;;;;;;;12.13;9.07;;;11.90;99.90;;;;;;5030965;28;20436;-68
2021/04/20 09:57:29;;;;;;;8.10;6.50;;;12.10;99.90;;;;;;5031115;28;20424;-67
2021/04/20 10:00:04;;;;;;;13.63;7.77;;;12.20;99.90;;;;;;5030752;28;20432;-67
2021/04/20 10:02:55;;;;;;;8.57;6.20;;;12.20;99.90;;;;;;5030564;28;20470;-66
2021/04/20 10:05:33;;;;;;;9.90;7.87;;;12.30;99.90;;;;;;5030902;28;20424;-66
2021/04/20 10:08:33;;;;;;;10.13;7.93;;;12.50;99.90;;;;;;5030764;28;20441;-68
2021/04/20 10:11:06;;;;;;;7.53;6.33;;;12.40;99.90;;;;;;5030587;28;20463;-69
2021/04/20 10:13:43;;;;;;;9.17;6.90;;;12.30;99.90;;;;;;5030882;28;20846;-68
2021/04/20 10:16:22;;;;;;;9.27;6.03;;;12.40;99.90;;;;;;5050021;28;20450;-67
2021/04/20 10:19:03;;;;;;;12.23;7.83;;;12.20;99.90;;;;;;5049540;28;20573;-69
2021/04/20 10:21:40;;;;;;;12.10;9.27;;;12.00;99.90;;;;;;5050828;28;20423;-69
2021/04/20 10:24:18;;;;;;;10.23;7.37;;;11.80;99.90;;;;;;5050365;28;20442;-69
2021/04/20 10:26:51;;;;;;;11.20;7.73;;;11.50;99.90;;;;;;5050659;28;20833;-68
2021/04/20 10:29:26;;;;;;;10.03;7.47;;;11.40;99.90;;;;;;5050194;27;20423;-67
2021/04/20 10:31:58;;;;;;;11.20;8.10;;;11.10;99.90;;;;;;5050455;28;20426;-69
2021/04/20 10:34:28;;;;;;;11.67;7.83;;;11.00;99.90;;;;;;5049006;28;20493;-69
2021/04/20 10:37:03;;;;;;;9.90;6.73;;;11.00;99.90;;;;;;5049128;28;20788;-68
2021/04/20 10:39:30;;;;;;;10.00;6.90;;;11.00;99.90;;;;;;5049364;28;20835;-67
2021/04/20 10:41:57;;;;;;;9.70;7.67;;;11.00;99.90;;;;;;5038628;28;20435;-67
2021/04/20 10:44:31;;;;;;;7.57;5.97;;;10.90;99.90;;;;;;5029107;28;20487;-68
2021/04/20 10:46:59;;;;;;;8.00;6.60;;;11.10;99.90;;;;;;5029220;28;20467;-68
2021/04/20 10:49:28;;;;;;;8.43;6.33;;;11.10;99.90;;;;;;5028895;28;20436;-69
2021/04/20 10:51:57;;;;;;;10.87;7.20;;;11.10;99.90;;;;;;5028806;28;20428;-68
2021/04/20 10:54:31;;;;;;;9.73;7.30;;;11.10;99.90;;;;;;5029117;28;20492;-68
2021/04/20 10:56:59;;;;;;;19.27;8.07;;;11.10;99.90;;;;;;5029067;28;20436;-67
2021/04/20 10:59:32;;;;;;;12.63;8.00;;;11.10;99.90;;;;;;5028577;28;20475;-68
2021/04/20 11:02:01;;;;;;;11.93;7.20;;;11.10;99.90;;;;;;5028970;28;20432;-68
2021/04/20 11:04:32;;;;;;;10.03;7.23;;;11.20;99.90;;;;;;5028943;28;20448;-68
2021/04/20 11:07:22;;;;;;;12.63;7.53;;;11.30;99.90;;;;;;5029054;28;20455;-67
2021/04/20 11:09:57;;;;;;;9.40;7.30;;;11.40;99.90;;;;;;5028717;28;20432;-70
2021/04/20 11:12:25;;;;;;;9.43;6.43;;;11.50;99.90;;;;;;5028633;28;20432;-66
2021/04/20 11:14:53;;;;;;;8.53;6.00;;;11.80;99.90;;;;;;5028664;28;20432;-67
2021/04/20 11:17:25;;;;;;;9.63;8.70;;;12.30;99.90;;;;;;5028721;28;20440;-67
2021/04/20 11:20:01;;;;;;;9.60;6.63;;;12.60;99.90;;;;;;5028548;28;20478;-70
2021/04/20 11:22:34;;;;;;;7.67;6.27;;;12.60;99.90;;;;;;5028869;28;20483;-68
2021/04/20 11:25:06;;;;;;;6.43;5.77;;;12.50;99.90;;;;;;5028640;28;20427;-68
2021/04/20 11:27:35;;;;;;;7.80;5.73;;;12.90;99.90;;;;;;5029377;28;20432;-66
2021/04/20 11:30:08;;;;;;;9.00;6.37;;;13.50;99.90;;;;;;5028395;28;20800;-68
2021/04/20 11:32:37;;;;;;;8.20;6.40;;;14.10;99.90;;;;;;5003777;28;714057;-65
2021/04/20 11:35:13;;;;;;;8.37;6.50;;;14.30;99.90;;;;;;5029553;28;20200;-67
2021/04/20 11:37:41;;;;;;;6.40;5.80;;;14.60;99.90;;;;;;5029670;28;20428;-69
2021/04/20 11:40:16;;;;;;;9.73;6.77;;;14.90;99.90;;;;;;5029187;28;20560;-66
2021/04/20 11:42:47;;;;;;;8.93;5.53;;;15.20;99.00;;;;;;5029526;28;20800;-68
2021/04/20 11:45:17;;;;;;;9.17;6.87;;;15.60;98.10;;;;;;5029376;28;20494;-68
2021/04/20 11:47:57;;;;;;;7.77;5.90;;;15.60;99.40;;;;;;5029139;28;20425;-70
2021/04/20 11:50:26;;;;;;;6.20;5.60;;;15.40;98.50;;;;;;5029244;28;20903;-66
2021/04/20 11:53:01;;;;;;;7.10;5.70;;;15.10;98.50;;;;;;5029269;28;20445;-69
2021/04/20 11:55:31;;;;;;;7.90;5.80;;;14.70;98.70;;;;;;5029387;28;20422;-69
2021/04/20 11:58:06;;;;;;;7.97;7.03;;;14.40;99.90;;;;;;5029217;28;20478;-70
2021/04/20 12:00:35;;;;;;;8.47;6.70;;;14.20;99.70;;;;;;5029183;28;20526;-65
2021/04/20 12:03:12;;;;;;;7.00;6.30;;;13.80;98.50;;;;;;5028013;28;20979;-66
2021/04/20 12:05:40;;;;;;;7.03;6.07;;;13.50;98.40;;;;;;5029227;28;20909;-66
2021/04/20 12:08:12;;;;;;;7.83;5.40;;;13.40;99.60;;;;;;5029096;28;20436;-67
2021/04/20 12:10:41;;;;;;;9.23;6.00;;;13.40;99.90;;;;;;5028016;28;20431;-67
2021/04/20 12:13:11;;;;;;;10.23;7.00;;;13.40;99.90;;;;;;5028882;28;20469;-65
2021/04/20 12:15:38;;;;;;;8.20;6.53;;;13.20;99.90;;;;;;5029091;28;20420;-66
2021/04/20 12:18:10;;;;;;;6.43;5.33;;;13.30;99.60;;;;;;5028750;28;20490;-69
2021/04/20 12:20:37;;;;;;;7.23;5.80;;;13.20;98.60;;;;;;5028750;28;20431;-66
2021/04/20 12:23:04;;;;;;;6.87;5.67;;;13.20;98.60;;;;;;5028722;28;20452;-69
2021/04/20 12:25:32;;;;;;;8.40;6.30;;;13.30;98.80;;;;;;5028895;28;20946;-68
2021/04/20 12:28:03;;;;;;;6.97;5.63;;;13.30;98.90;;;;;;5028682;28;20448;-68
2021/04/20 12:30:31;;;;;;;7.90;5.80;;;13.40;99.30;;;;;;5028905;28;20436;-68
2021/04/20 12:32:58;;;;;;;11.87;6.10;;;13.50;97.90;;;;;;5028452;28;20508;-68
2021/04/20 12:35:30;;;;;;;7.77;6.47;;;13.50;98.40;;;;;;5028777;28;20463;-67
2021/04/20 12:38:04;;;;;;;8.00;6.70;;;13.60;98.00;;;;;;5028382;28;20454;-66
2021/04/20 12:40:33;;;;;;;8.17;5.83;;;13.70;98.30;;;;;;5028369;28;20432;-68
2021/04/20 12:43:04;;;;;;;7.30;5.60;;;14.10;97.60;;;;;;5047706;28;20447;-69
2021/04/20 12:45:36;;;;;;;14.40;5.77;;;14.50;96.70;;;;;;5048548;28;20421;-67
2021/04/20 12:48:04;;;;;;;7.53;6.10;;;15.10;97.50;;;;;;5048137;28;20513;-65
2021/04/20 12:50:35;;;;;;;6.77;5.30;;;15.70;95.70;;;;;;5048258;28;20527;-66
2021/04/20 12:53:04;;;;;;;6.57;4.80;;;16.20;95.50;;;;;;5048344;28;20474;-68
2021/04/20 12:55:33;;;;;;;5.53;5.03;;;16.80;94.80;;;;;;5048337;28;20432;-65
2021/04/20 12:58:16;;;;;;;6.57;5.23;;;17.20;92.90;;;;;;5048005;28;20440;-67
2021/04/20 13:00:42;;;;;;;6.87;5.20;;;17.00;91.10;;;;;;5047779;28;20989;-65
2021/04/20 13:03:10;;;;;;;6.57;5.17;;;16.80;88.50;;;;;;5047735;28;20498;-66
2021/04/20 13:05:39;;;;;;;8.90;6.10;;;16.40;88.40;;;;;;5048295;28;20452;-66
2021/04/20 13:08:08;;;;;;;10.20;7.50;;;16.20;92.20;;;;;;5048056;28;20457;-69
2021/04/20 13:10:36;;;;;;;7.77;6.40;;;16.50;92.30;;;;;;5047780;28;20458;-68
2021/04/20 13:13:08;;;;;;;8.13;5.90;;;16.20;91.50;;;;;;5047497;28;20453;-69